Time;durP1;ratioP1;P1;durP2;ratioP2;P2;SDS_P1;SDS_P2;PMS_P1;PMS_P2;Temp;Humidity;BMP_temperature;BMP_pressure;BME280_temperature;BME280_humidity;BME280_pressure;Samples;Min_cycle;Max_cycle;Signal;HPM_P1;HPM_P2
2021/10/22 00:01:38;;;;;;;3.08;1.60;;;;;;;12.70;66.22;100347.38;5013470;28;20022;-51
2021/10/22 00:04:04;;;;;;;4.53;1.70;;;;;;;12.69;66.11;100348.28;5011610;28;20393;-50
2021/10/22 00:06:32;;;;;;;5.45;1.77;;;;;;;12.69;66.33;100347.41;5019725;28;20034;-51
2021/10/22 00:08:57;;;;;;;3.33;1.20;;;;;;;12.68;66.15;100356.25;5031686;28;20022;-51
2021/10/22 00:11:23;;;;;;;7.20;1.95;;;;;;;12.67;66.30;100352.72;5032120;28;20048;-50
2021/10/22 00:13:48;;;;;;;3.22;1.23;;;;;;;12.66;66.21;100358.06;5024478;28;20045;-51
2021/10/22 00:16:14;;;;;;;4.85;2.08;;;;;;;12.66;66.09;100355.41;5012009;28;20036;-51
2021/10/22 00:18:39;;;;;;;4.65;2.45;;;;;;;12.63;66.03;100359.00;5027637;28;20022;-51
2021/10/22 00:21:04;;;;;;;1.65;1.30;;;;;;;12.62;66.02;100366.97;5021609;28;20034;-50
2021/10/22 00:23:30;;;;;;;4.85;1.55;;;;;;;12.62;66.19;100362.56;5026673;28;20036;-50
2021/10/22 00:25:58;;;;;;;3.75;1.70;;;;;;;12.60;66.00;100367.00;5030296;28;20032;-50
2021/10/22 00:28:23;;;;;;;4.18;1.80;;;;;;;12.59;66.29;100357.31;5017863;28;20497;-50
2021/10/22 00:30:48;;;;;;;5.10;1.80;;;;;;;12.61;66.09;100359.94;5012056;28;20026;-50
2021/10/22 00:33:20;;;;;;;3.17;1.70;;;;;;;12.58;65.87;100345.88;5015703;28;20429;-50
2021/10/22 00:35:48;;;;;;;3.95;1.80;;;;;;;12.58;66.10;100350.31;5024107;28;20539;-51
2021/10/22 00:38:13;;;;;;;1.90;1.27;;;;;;;12.58;66.49;100345.00;5030471;28;20296;-51
2021/10/22 00:40:39;;;;;;;3.58;1.80;;;;;;;12.57;65.95;100348.53;5031170;28;20117;-50
2021/10/22 00:43:04;;;;;;;3.95;1.63;;;;;;;12.56;66.06;100349.44;5030938;28;20017;-50
2021/10/22 00:45:30;;;;;;;2.92;1.38;;;;;;;12.54;65.99;100356.56;5030133;28;20045;-50
2021/10/22 00:47:55;;;;;;;4.22;1.95;;;;;;;12.53;65.88;100346.88;5030967;28;20021;-51
2021/10/22 00:50:20;;;;;;;1.85;1.55;;;;;;;12.52;66.26;100351.31;5029579;28;20047;-50
2021/10/22 00:52:46;;;;;;;2.55;1.52;;;;;;;12.52;65.91;100367.19;5028321;28;20112;-51
2021/10/22 00:55:12;;;;;;;3.83;1.50;;;;;;;12.49;66.15;100359.31;5028828;28;20025;-50
2021/10/22 00:57:41;;;;;;;3.40;1.60;;;;;;;12.51;65.88;100356.63;5030668;28;20018;-51
2021/10/22 01:00:07;;;;;;;3.25;1.80;;;;;;;12.49;66.06;100361.06;5030849;28;20412;-51
2021/10/22 01:02:41;;;;;;;5.45;2.10;;;;;;;12.49;66.18;100361.06;5031164;28;20078;-50
2021/10/22 01:05:14;;;;;;;5.20;1.65;;;;;;;12.49;66.06;100350.50;5030834;28;20032;-50
2021/10/22 01:07:41;;;;;;;3.15;1.63;;;;;;;12.47;66.10;100357.59;5019736;28;20087;-50
2021/10/22 01:10:07;;;;;;;4.03;2.05;;;;;;;12.44;66.04;100343.53;5021777;28;20025;-50
2021/10/22 01:12:34;;;;;;;5.43;1.80;;;;;;;12.45;66.20;100349.72;5030588;28;20025;-52
2021/10/22 01:15:09;;;;;;;3.00;1.65;;;;;;;12.45;66.17;100355.00;5029545;28;20113;-51
2021/10/22 01:17:43;;;;;;;2.85;1.50;;;;;;;12.42;66.34;100355.94;5029347;28;20018;-51
2021/10/22 01:20:14;;;;;;;4.13;2.17;;;;;;;12.42;66.03;100352.41;5011896;28;20112;-50
2021/10/22 01:22:40;;;;;;;2.08;1.73;;;;;;;12.40;66.28;100352.44;5030019;28;20033;-50
2021/10/22 01:25:11;;;;;;;5.18;1.90;;;;;;;12.40;66.16;100349.78;5030394;28;20040;-51
2021/10/22 01:27:37;;;;;;;5.63;2.45;;;;;;;12.40;65.99;100354.22;5031749;28;20032;-51
2021/10/22 01:30:04;;;;;;;3.13;1.80;;;;;;;12.39;65.98;100353.34;5030715;28;20034;-50
2021/10/22 01:32:30;;;;;;;3.70;1.70;;;;;;;12.39;66.03;100356.00;5029244;28;20055;-51
2021/10/22 01:34:56;;;;;;;4.95;1.88;;;;;;;12.38;66.19;100369.25;5011585;28;20030;-51
2021/10/22 01:37:21;;;;;;;4.68;1.95;;;;;;;12.37;66.10;100375.47;5031210;28;20052;-50
2021/10/22 01:39:47;;;;;;;3.03;1.85;;;;;;;12.36;66.28;100379.88;5030066;28;20444;-50
2021/10/22 01:42:12;;;;;;;4.72;2.00;;;;;;;12.36;66.08;100387.78;5031482;28;20083;-50
2021/10/22 01:44:37;;;;;;;4.25;1.85;;;;;;;12.34;66.02;100381.66;5031136;28;20041;-50
2021/10/22 01:47:03;;;;;;;5.93;1.60;;;;;;;12.34;65.87;100384.28;5031079;28;20025;-50
2021/10/22 01:49:28;;;;;;;5.03;2.40;;;;;;;12.34;66.07;100389.59;5031756;28;20604;-51
2021/10/22 01:51:53;;;;;;;4.22;1.63;;;;;;;12.33;66.16;100387.84;5018461;28;20079;-50
2021/10/22 01:54:21;;;;;;;2.28;1.55;;;;;;;12.32;65.99;100383.47;5031595;28;20049;-51
2021/10/22 01:56:47;;;;;;;3.40;1.98;;;;;;;12.31;66.38;100390.53;5030976;28;20029;-50
2021/10/22 01:59:12;;;;;;;2.38;1.73;;;;;;;12.30;66.04;100388.78;5031427;28;20025;-50
2021/10/22 02:01:38;;;;;;;4.47;1.92;;;;;;;12.31;66.11;100387.03;5031400;28;20027;-51
2021/10/22 02:04:03;;;;;;;4.18;2.33;;;;;;;12.30;66.06;100390.56;5029503;28;20524;-51
2021/10/22 02:06:29;;;;;;;3.92;1.67;;;;;;;12.29;66.18;100378.25;5030601;28;20071;-50
2021/10/22 02:08:54;;;;;;;5.47;1.88;;;;;;;12.26;66.43;100384.47;5031125;28;20420;-50
2021/10/22 02:11:19;;;;;;;2.80;1.55;;;;;;;12.26;65.91;100381.84;5031230;28;20505;-51
2021/10/22 02:13:46;;;;;;;4.43;2.05;;;;;;;12.26;66.29;100391.53;5033560;28;20476;-50
2021/10/22 02:16:11;;;;;;;2.45;1.35;;;;;;;12.26;66.16;100388.88;5034294;28;20392;-50
2021/10/22 02:18:36;;;;;;;2.63;1.60;;;;;;;12.25;66.12;100395.09;5034388;28;20022;-51
2021/10/22 02:21:02;;;;;;;3.72;2.05;;;;;;;12.23;66.16;100392.47;5034935;28;20118;-51
2021/10/22 02:23:27;;;;;;;3.28;1.58;;;;;;;12.22;66.36;100389.84;5033034;28;20036;-51
2021/10/22 02:25:52;;;;;;;3.40;1.65;;;;;;;12.21;66.12;100382.84;5032792;28;20443;-51
2021/10/22 02:28:18;;;;;;;2.45;1.70;;;;;;;12.21;66.00;100389.00;5038416;28;20112;-50
2021/10/22 02:30:43;;;;;;;6.20;2.05;;;;;;;12.21;65.99;100385.47;5034060;28;20112;-50
2021/10/22 02:33:10;;;;;;;3.92;1.23;;;;;;;12.19;66.24;100386.38;5031544;28;20029;-50
2021/10/22 02:35:35;;;;;;;2.53;1.70;;;;;;;12.19;66.26;100386.38;5033987;28;20528;-50
2021/10/22 02:38:01;;;;;;;2.83;2.00;;;;;;;12.16;66.29;100375.88;5034107;28;20026;-50
2021/10/22 02:40:26;;;;;;;2.75;1.83;;;;;;;12.16;66.23;100381.16;5032738;28;20025;-50
2021/10/22 02:42:53;;;;;;;4.65;2.03;;;;;;;12.15;66.10;100379.41;5033971;28;20036;-50
2021/10/22 02:45:19;;;;;;;3.60;1.50;;;;;;;12.15;65.93;100379.41;5033304;28;20068;-50
2021/10/22 02:47:44;;;;;;;3.20;1.50;;;;;;;12.15;66.03;100383.81;5032531;28;20057;-50
2021/10/22 02:50:10;;;;;;;4.13;1.65;;;;;;;12.14;66.50;100384.75;5034510;28;20025;-50
2021/10/22 02:52:35;;;;;;;3.33;1.70;;;;;;;12.13;66.23;100380.31;5033891;28;20038;-50
2021/10/22 02:55:01;;;;;;;4.80;2.15;;;;;;;12.10;66.23;100370.69;5033124;28;20041;-50
2021/10/22 02:57:26;;;;;;;3.08;1.75;;;;;;;12.11;66.11;100380.38;5033854;28;20527;-50
2021/10/22 02:59:52;;;;;;;1.95;1.42;;;;;;;12.10;66.08;100389.19;5034605;28;20395;-50
2021/10/22 03:02:17;;;;;;;2.17;1.40;;;;;;;12.09;66.35;100387.47;5033389;28;20097;-50
2021/10/22 03:04:43;;;;;;;2.63;1.35;;;;;;;12.08;66.23;100382.22;5033818;28;20057;-50
2021/10/22 03:07:08;;;;;;;3.60;1.88;;;;;;;12.05;66.15;100384.00;5033355;28;20022;-51
2021/10/22 03:09:35;;;;;;;2.70;2.03;;;;;;;12.05;66.44;100378.72;5033473;28;20068;-50
2021/10/22 03:12:01;;;;;;;3.55;1.50;;;;;;;12.04;66.04;100382.22;5033462;28;20400;-51
2021/10/22 03:14:26;;;;;;;6.28;2.15;;;;;;;12.05;66.27;100385.75;5033378;28;20029;-50
2021/10/22 03:16:51;;;;;;;5.40;2.00;;;;;;;12.04;66.08;100384.03;5028939;28;20386;-51
2021/10/22 03:19:16;;;;;;;2.95;2.65;;;;;;;12.02;66.10;100383.16;5033159;28;20026;-51
2021/10/22 03:21:42;;;;;;;4.28;1.70;;;;;;;12.01;65.92;100382.28;5016816;28;20033;-51
2021/10/22 03:24:07;;;;;;;2.15;1.58;;;;;;;12.01;66.01;100386.72;5021990;28;20091;-51
2021/10/22 03:26:33;;;;;;;5.53;1.42;;;;;;;12.02;66.22;100391.97;5033201;28;20100;-50
2021/10/22 03:28:58;;;;;;;5.00;1.77;;;;;;;12.01;66.14;100386.72;5033376;28;20552;-51
2021/10/22 03:31:24;;;;;;;6.95;1.80;;;;;;;11.99;66.24;100393.78;5027754;28;20029;-50
2021/10/22 03:33:50;;;;;;;3.63;1.70;;;;;;;11.98;66.03;100386.78;5032478;28;20036;-50
2021/10/22 03:36:15;;;;;;;1.83;1.17;;;;;;;11.97;65.89;100390.31;5032510;28;20041;-50
2021/10/22 03:38:41;;;;;;;2.38;1.45;;;;;;;11.97;66.06;100400.91;5032904;28;20497;-51
2021/10/22 03:41:07;;;;;;;2.35;1.45;;;;;;;11.96;66.15;100399.13;5033022;28;20105;-51
2021/10/22 03:43:34;;;;;;;2.38;1.95;;;;;;;11.94;65.90;100394.75;5031683;28;20151;-50
2021/10/22 03:45:59;;;;;;;3.72;1.85;;;;;;;11.94;65.86;100391.25;5027858;28;20409;-50
2021/10/22 03:48:24;;;;;;;3.42;1.40;;;;;;;11.93;66.18;100393.03;5019381;28;20030;-50
2021/10/22 03:50:50;;;;;;;2.83;1.48;;;;;;;11.92;66.15;100390.41;5023789;28;20040;-50
2021/10/22 03:53:15;;;;;;;2.92;1.45;;;;;;;11.91;66.03;100391.31;5030109;28;20036;-50
2021/10/22 03:55:40;;;;;;;4.53;1.77;;;;;;;11.91;65.92;100392.16;5031879;28;20029;-50
2021/10/22 03:58:06;;;;;;;4.15;2.03;;;;;;;11.90;66.05;100394.84;5034317;28;20460;-51
2021/10/22 04:00:34;;;;;;;5.70;1.50;;;;;;;11.89;65.90;100390.47;5032945;28;20090;-50
2021/10/22 04:02:59;;;;;;;2.85;2.05;;;;;;;11.88;65.80;100394.91;5031083;28;20081;-50
2021/10/22 04:05:29;;;;;;;4.60;2.13;;;;;;;11.87;66.27;100389.63;5023468;28;20108;-50
2021/10/22 04:07:56;;;;;;;4.40;2.40;;;;;;;11.86;66.11;100396.69;5028450;28;20040;-50
2021/10/22 04:10:21;;;;;;;1.95;1.63;;;;;;;11.87;65.81;100387.84;5022042;28;20072;-50
2021/10/22 04:12:47;;;;;;;3.70;1.77;;;;;;;11.86;66.08;100401.97;5032698;28;20037;-51
2021/10/22 04:15:12;;;;;;;3.97;1.83;;;;;;;11.87;66.14;100405.50;5032092;28;20382;-50
2021/10/22 04:17:38;;;;;;;3.80;1.70;;;;;;;11.82;65.94;100408.22;5032624;28;20021;-50
2021/10/22 04:20:06;;;;;;;2.38;1.50;;;;;;;11.83;66.11;100409.09;5026940;28;20075;-50
2021/10/22 04:22:31;;;;;;;3.28;1.40;;;;;;;11.82;65.87;100408.22;5022524;28;20059;-50
2021/10/22 04:24:57;;;;;;;4.32;2.38;;;;;;;11.81;65.90;100409.97;5029075;28;20021;-50
2021/10/22 04:27:22;;;;;;;2.45;1.60;;;;;;;11.81;65.82;100412.59;5019873;28;20022;-51
2021/10/22 04:29:47;;;;;;;5.15;1.65;;;;;;;11.79;66.20;100403.84;5014958;28;20398;-50
2021/10/22 04:32:13;;;;;;;4.43;1.95;;;;;;;11.78;66.06;100394.16;5019593;28;20049;-50
2021/10/22 04:34:38;;;;;;;3.25;2.20;;;;;;;11.78;66.01;100388.88;5031458;28;20100;-50
2021/10/22 04:37:25;;;;;;;4.78;1.80;;;;;;;11.77;65.83;100386.28;5032762;28;20029;-50
2021/10/22 04:42:43;;;;;;;3.08;1.73;;;;;;;11.75;65.94;100374.88;5024972;28;20117;-50
2021/10/22 04:45:09;;;;;;;;;;;;;;;11.74;65.94;100374.00;5030269;28;20029;-50
2021/10/22 04:47:37;;;;;;;2.72;1.67;;;;;;;11.72;66.09;100378.44;5031798;28;19909;-50
2021/10/22 04:50:04;;;;;;;4.65;2.33;;;;;;;11.72;65.75;100375.81;5031654;28;20612;-50
2021/10/22 04:52:29;;;;;;;3.83;1.98;;;;;;;11.70;65.75;100382.03;5023723;28;20040;-50
2021/10/22 04:54:56;;;;;;;5.65;2.28;;;;;;;11.70;65.88;100376.75;5030640;28;20079;-50
2021/10/22 04:57:21;;;;;;;3.03;1.90;;;;;;;11.67;65.67;100373.25;5031719;28;20065;-50
2021/10/22 04:59:46;;;;;;;2.25;1.75;;;;;;;11.67;65.71;100373.25;5027782;28;20075;-51
2021/10/22 05:02:12;;;;;;;4.28;2.13;;;;;;;11.68;65.76;100374.97;5030840;28;20029;-51
2021/10/22 05:04:37;;;;;;;3.40;2.20;;;;;;;11.66;65.95;100382.06;5030372;28;20029;-50
2021/10/22 05:07:02;;;;;;;4.78;2.25;;;;;;;11.65;65.66;100390.91;5030927;28;20532;-50
2021/10/22 05:09:28;;;;;;;5.28;2.00;;;;;;;11.64;65.61;100393.56;5031314;28;20041;-50
2021/10/22 05:11:53;;;;;;;3.13;1.73;;;;;;;11.60;66.06;100379.53;5030745;28;20412;-50
2021/10/22 05:14:19;;;;;;;3.42;1.92;;;;;;;11.63;65.72;100400.63;5030982;28;20374;-50
2021/10/22 05:16:44;;;;;;;4.85;2.50;;;;;;;11.62;65.95;100404.16;5031417;28;20059;-50
2021/10/22 05:19:09;;;;;;;7.13;2.35;;;;;;;11.61;65.78;100420.88;5031530;28;20017;-50
2021/10/22 05:21:35;;;;;;;7.93;2.30;;;;;;;11.61;65.65;100412.13;5031629;28;20025;-51
2021/10/22 05:24:00;;;;;;;5.35;2.38;;;;;;;11.59;65.65;100412.13;5031362;28;20065;-50
2021/10/22 05:26:25;;;;;;;4.38;2.40;;;;;;;11.58;66.01;100410.41;5031700;28;20053;-51
2021/10/22 05:28:50;;;;;;;2.65;2.25;;;;;;;11.59;65.64;100406.84;5030110;28;20484;-50
2021/10/22 05:31:16;;;;;;;3.28;2.42;;;;;;;11.57;65.75;100408.63;5026505;28;20030;-50
2021/10/22 05:33:41;;;;;;;2.70;2.15;;;;;;;11.56;65.95;100406.91;5016850;28;20022;-50
2021/10/22 05:36:06;;;;;;;4.18;2.00;;;;;;;11.57;66.08;100421.84;5022132;28;20032;-50
2021/10/22 05:38:32;;;;;;;6.95;2.70;;;;;;;11.56;65.94;100406.91;5020904;28;20030;-50
2021/10/22 05:40:57;;;;;;;3.65;2.42;;;;;;;11.55;65.90;100421.00;5024967;28;20225;-50
2021/10/22 05:43:22;;;;;;;5.90;2.33;;;;;;;11.52;66.01;100415.78;5019964;28;20036;-50
2021/10/22 05:45:48;;;;;;;3.25;2.10;;;;;;;11.53;65.72;100426.31;5027482;28;20064;-50
2021/10/22 05:48:13;;;;;;;5.22;2.28;;;;;;;11.52;65.89;100426.34;5036996;28;20106;-50
2021/10/22 05:50:40;;;;;;;5.18;2.20;;;;;;;11.52;65.89;100428.97;5034114;28;20040;-51
2021/10/22 05:53:06;;;;;;;5.05;2.72;;;;;;;11.49;65.66;100423.75;5035252;28;20022;-50
2021/10/22 05:55:31;;;;;;;4.25;2.65;;;;;;;11.49;66.07;100431.66;5031679;28;20040;-51
2021/10/22 05:57:56;;;;;;;3.53;2.40;;;;;;;11.49;66.12;100434.31;5036425;28;20546;-50
2021/10/22 06:00:22;;;;;;;4.75;2.22;;;;;;;11.48;66.02;100440.50;5033676;28;20061;-50
2021/10/22 06:02:50;;;;;;;4.82;2.65;;;;;;;11.47;65.75;100433.47;5028186;28;20113;-50
2021/10/22 06:05:16;;;;;;;3.80;2.30;;;;;;;11.46;65.85;100437.00;5029630;28;20026;-50
2021/10/22 06:07:41;;;;;;;3.38;3.08;;;;;;;11.45;65.68;100435.25;5019663;28;20385;-50
2021/10/22 06:10:06;;;;;;;4.82;2.70;;;;;;;11.45;65.62;100435.25;5033331;28;20017;-50
2021/10/22 06:12:33;;;;;;;4.80;2.80;;;;;;;11.42;65.92;100447.63;5038980;28;20025;-50
2021/10/22 06:14:59;;;;;;;4.25;2.92;;;;;;;11.42;65.80;100438.84;5033726;28;20029;-50
2021/10/22 06:17:25;;;;;;;2.33;2.13;;;;;;;11.41;65.59;100445.03;5035260;28;20022;-50
2021/10/22 06:19:53;;;;;;;6.38;2.65;;;;;;;11.41;65.89;100456.44;5034339;28;20028;-50
2021/10/22 06:24:43;;;;;;;5.20;3.20;;;;;;;11.40;65.85;100462.63;5031939;28;20072;-51
2021/10/22 06:27:09;;;;;;;3.90;2.95;;;;;;;11.39;65.88;100463.53;5014879;28;20021;-50
2021/10/22 06:29:34;;;;;;;5.30;3.10;;;;;;;11.38;65.92;100461.78;5017976;28;20033;-50
2021/10/22 06:32:00;;;;;;;3.55;2.40;;;;;;;11.35;65.76;100453.91;5034988;28;20056;-50
2021/10/22 06:34:27;;;;;;;6.35;3.38;;;;;;;11.36;65.88;100458.28;5034494;28;20499;-50
2021/10/22 06:36:52;;;;;;;4.68;3.42;;;;;;;11.36;65.92;100455.66;5034044;28;20393;-50
2021/10/22 06:39:21;;;;;;;4.72;3.08;;;;;;;11.36;65.96;100447.72;5034472;28;20036;-50
2021/10/22 06:41:47;;;;;;;5.25;3.08;;;;;;;11.35;65.98;100450.38;5034404;28;20079;-50
2021/10/22 06:44:14;;;;;;;5.00;3.47;;;;;;;11.34;65.65;100431.03;5034322;28;20033;-49
2021/10/22 06:46:39;;;;;;;4.30;3.15;;;;;;;11.34;65.96;100438.94;5025876;28;20030;-50
2021/10/22 06:49:05;;;;;;;5.88;3.28;;;;;;;11.33;65.87;100436.34;5034323;28;20021;-50
2021/10/22 06:51:30;;;;;;;7.55;4.13;;;;;;;11.33;65.96;100428.44;5034132;28;20041;-51
2021/10/22 06:53:55;;;;;;;5.82;3.60;;;;;;;11.32;65.95;100417.00;5029173;28;20076;-50
2021/10/22 06:56:30;;;;;;;6.50;3.38;;;;;;;11.31;65.66;100425.81;5031686;28;20022;-50
2021/10/22 06:58:55;;;;;;;4.82;3.60;;;;;;;11.29;65.93;100427.59;5032829;28;20021;-50
2021/10/22 07:01:21;;;;;;;4.78;3.67;;;;;;;11.29;65.69;100423.19;5033581;28;20036;-50
2021/10/22 07:03:46;;;;;;;7.13;4.45;;;;;;;11.29;65.99;100403.84;5033498;28;20037;-50
2021/10/22 07:08:56;;;;;;;9.52;4.22;;;;;;;11.28;65.96;100407.38;5033890;28;20025;-50
2021/10/22 07:11:22;;;;;;;5.32;3.35;;;;;;;11.27;65.68;100410.91;5034093;28;20026;-50
2021/10/22 07:13:53;;;;;;;7.05;4.18;;;;;;;11.27;65.81;100416.19;5028501;28;20064;-50
2021/10/22 07:16:20;;;;;;;6.72;3.50;;;;;;;11.26;65.76;100414.44;5014167;28;20033;-50
2021/10/22 07:18:49;;;;;;;7.22;4.78;;;;;;;11.25;65.64;100405.66;5014070;28;20517;-49
2021/10/22 07:21:16;;;;;;;4.45;3.80;;;;;;;11.25;65.75;100396.84;5021993;28;20022;-50
2021/10/22 07:23:43;;;;;;;6.97;3.58;;;;;;;11.25;65.96;100394.22;5032304;28;20029;-50
2021/10/22 07:26:09;;;;;;;4.00;3.53;;;;;;;11.24;65.97;100397.78;5033717;28;20029;-50
2021/10/22 07:28:34;;;;;;;6.40;3.42;;;;;;;11.23;65.50;100404.81;5033296;28;20120;-50
2021/10/22 07:31:00;;;;;;;4.13;2.92;;;;;;;11.23;65.93;100398.63;5033885;28;20151;-50
2021/10/22 07:33:27;;;;;;;6.35;3.95;;;;;;;11.22;66.00;100396.91;5025967;28;20628;-50
2021/10/22 07:35:52;;;;;;;5.50;3.35;;;;;;;11.21;65.90;100382.84;5013409;28;20709;-50
2021/10/22 07:38:17;;;;;;;6.03;3.33;;;;;;;11.20;65.63;100394.28;5022646;28;20017;-50
2021/10/22 07:40:45;;;;;;;4.50;2.88;;;;;;;11.20;65.58;100377.59;5028712;28;20033;-50
2021/10/22 07:43:11;;;;;;;5.30;3.40;;;;;;;11.19;65.51;100370.56;5013893;28;20073;-50
2021/10/22 07:45:36;;;;;;;5.55;3.50;;;;;;;11.19;65.76;100381.09;5032855;28;20029;-50
2021/10/22 07:48:02;;;;;;;5.60;3.22;;;;;;;11.17;65.89;100378.50;5030222;28;20508;-50
2021/10/22 07:50:27;;;;;;;5.35;3.50;;;;;;;11.16;65.34;100371.47;5028579;28;20033;-51
2021/10/22 07:52:52;;;;;;;5.60;3.15;;;;;;;11.15;65.49;100357.44;5022433;28;20029;-50
2021/10/22 07:55:18;;;;;;;5.93;3.67;;;;;;;11.15;65.41;100370.63;5032027;28;20434;-50
2021/10/22 07:57:43;;;;;;;6.63;3.38;;;;;;;11.15;65.85;100380.31;5032159;28;20047;-50
2021/10/22 08:00:10;;;;;;;5.03;3.45;;;;;;;11.15;65.65;100382.94;5023338;28;20025;-50
2021/10/22 08:02:36;;;;;;;7.47;3.85;;;;;;;11.15;65.40;100381.19;5024877;28;20021;-50
2021/10/22 08:05:03;;;;;;;3.97;3.17;;;;;;;11.14;65.40;100379.41;5019258;28;20532;-50
2021/10/22 08:07:33;;;;;;;6.00;3.83;;;;;;;11.13;65.38;100377.69;5030781;28;20034;-50
2021/10/22 08:09:59;;;;;;;4.10;3.42;;;;;;;11.13;65.46;100382.97;5031584;28;20041;-50
2021/10/22 08:12:26;;;;;;;4.10;3.22;;;;;;;11.11;65.53;100374.19;5026178;28;21523;-50
2021/10/22 08:14:53;;;;;;;4.35;3.47;;;;;;;11.12;65.62;100364.50;5027615;28;20040;-50
2021/10/22 08:17:20;;;;;;;3.70;2.97;;;;;;;11.12;65.30;100369.78;5027137;28;20441;-50
2021/10/22 08:19:52;;;;;;;5.40;3.30;;;;;;;11.10;64.97;100376.88;5028268;28;20029;-50
2021/10/22 08:22:30;;;;;;;10.15;4.70;;;;;;;10.92;62.58;100373.63;5028553;28;20405;-50
2021/10/22 08:24:59;;;;;;;9.50;3.58;;;;;;;10.67;62.18;100368.69;5025992;28;20641;-49
2021/10/22 08:27:27;;;;;;;8.88;4.40;;;;;;;10.58;63.12;100380.28;5018033;28;20485;-51
2021/10/22 08:29:53;;;;;;;7.28;4.05;;;;;;;10.50;62.88;100383.00;5027504;28;20504;-50
2021/10/22 08:32:18;;;;;;;11.95;4.15;;;;;;;10.55;62.72;100398.78;5028203;28;20033;-50
2021/10/22 08:34:45;;;;;;;8.35;3.72;;;;;;;10.45;63.29;100394.50;5032040;28;20028;-50
2021/10/22 08:37:10;;;;;;;13.75;4.10;;;;;;;10.39;63.62;100409.47;5031999;28;20021;-49
2021/10/22 08:39:42;;;;;;;9.05;3.78;;;;;;;10.39;64.50;100417.41;5027717;28;20040;-49
2021/10/22 08:42:10;;;;;;;10.15;3.35;;;;;;;10.48;64.67;100415.56;5030237;28;20056;-49
2021/10/22 08:44:41;;;;;;;7.90;4.55;;;;;;;10.54;64.71;100419.88;5031826;28;20535;-49
2021/10/22 08:47:07;;;;;;;6.32;3.20;;;;;;;10.57;65.01;100411.94;5027296;28;20029;-48
2021/10/22 08:49:34;;;;;;;6.65;3.90;;;;;;;10.58;64.81;100406.66;5046877;28;20025;-49
2021/10/22 08:52:02;;;;;;;8.40;3.80;;;;;;;10.59;64.90;100404.84;5034661;28;20036;-49
2021/10/22 08:54:28;;;;;;;7.43;3.75;;;;;;;10.61;65.16;100411.84;5030836;28;20033;-49
2021/10/22 08:56:53;;;;;;;7.30;3.13;;;;;;;10.62;65.15;100400.44;5033749;28;20067;-49
2021/10/22 08:59:18;;;;;;;5.45;2.80;;;;;;;10.63;65.22;100394.25;5023476;28;20024;-49
2021/10/22 09:02:17;;;;;;;6.45;3.70;;;;;;;10.63;65.29;100388.97;5031454;28;20053;-49
2021/10/22 09:04:44;;;;;;;10.90;4.03;;;;;;;10.64;65.38;100392.50;5027951;28;20021;-49
2021/10/22 09:07:17;;;;;;;9.60;3.55;;;;;;;10.64;65.02;100393.34;5020274;28;20021;-49
2021/10/22 09:09:45;;;;;;;6.18;3.13;;;;;;;10.65;65.08;100391.59;5028127;28;20037;-49
2021/10/22 09:12:11;;;;;;;5.50;2.95;;;;;;;10.65;65.33;100384.56;5033632;28;20036;-48
2021/10/22 09:14:39;;;;;;;7.53;3.20;;;;;;;10.66;65.07;100380.16;5027680;28;20026;-49
2021/10/22 09:17:10;;;;;;;5.93;3.20;;;;;;;10.67;64.94;100379.25;5029252;28;20091;-49
2021/10/22 09:19:37;;;;;;;3.90;2.83;;;;;;;10.67;65.08;100373.13;5033307;28;20013;-49
2021/10/22 09:22:32;;;;;;;4.85;3.22;;;;;;;10.71;64.92;100380.09;5029731;28;20121;-49
2021/10/22 09:25:05;;;;;;;4.18;2.95;;;;;;;10.70;64.92;100368.66;5025782;28;20026;-48
2021/10/22 09:27:40;;;;;;;5.95;2.75;;;;;;;10.70;64.85;100373.94;5028135;28;20037;-49
2021/10/22 09:30:24;;;;;;;7.38;2.90;;;;;;;10.71;65.33;100378.31;5020182;28;20033;-48
2021/10/22 09:32:51;;;;;;;5.90;2.70;;;;;;;10.72;65.18;100387.09;5041212;28;20036;-49
2021/10/22 09:35:29;;;;;;;2.95;2.47;;;;;;;10.72;65.12;100387.09;5042347;28;20475;-49
2021/10/22 09:37:54;;;;;;;4.50;2.88;;;;;;;10.71;64.98;100380.09;5022616;28;20018;-50
2021/10/22 09:40:28;;;;;;;5.28;2.40;;;;;;;10.70;65.06;100376.56;5024336;28;20033;-48
2021/10/22 09:42:54;;;;;;;5.47;2.55;;;;;;;10.71;65.05;100370.38;5032012;28;20033;-49
2021/10/22 09:45:26;;;;;;;4.82;3.38;;;;;;;10.71;65.00;100365.13;5025416;28;20030;-48
2021/10/22 09:47:51;;;;;;;5.20;2.55;;;;;;;10.71;64.92;100361.63;5030076;28;20080;-49
2021/10/22 09:50:25;;;;;;;5.28;2.53;;;;;;;10.71;65.30;100351.06;5021430;28;20029;-49
2021/10/22 09:52:50;;;;;;;6.30;2.60;;;;;;;10.70;65.10;100360.75;5031076;28;20373;-49
2021/10/22 09:55:18;;;;;;;2.50;2.13;;;;;;;10.70;64.93;100346.69;5027496;28;20032;-49
2021/10/22 09:58:03;;;;;;;4.95;2.88;;;;;;;10.71;64.87;100348.44;5028233;28;20120;-50
2021/10/22 10:00:33;;;;;;;4.70;2.72;;;;;;;10.71;65.20;100359.00;5020299;28;20034;-49
2021/10/22 10:03:00;;;;;;;3.30;2.50;;;;;;;10.69;64.91;100351.09;5023632;28;20032;-49
2021/10/22 10:05:26;;;;;;;3.90;2.58;;;;;;;10.69;65.12;100358.13;5029157;28;20037;-49
2021/10/22 10:07:51;;;;;;;4.00;3.38;;;;;;;10.68;65.12;100359.91;5040216;28;20033;-49
2021/10/22 10:10:16;;;;;;;4.47;2.45;;;;;;;10.70;65.02;100357.25;5027510;28;20021;-49
2021/10/22 10:12:42;;;;;;;7.60;2.28;;;;;;;10.69;64.72;100355.50;5030282;28;20343;-49
2021/10/22 10:15:12;;;;;;;5.22;2.20;;;;;;;10.71;64.94;100359.00;5024872;28;20528;-49
2021/10/22 10:17:41;;;;;;;5.25;2.17;;;;;;;10.70;64.98;100357.25;5020102;28;20025;-49
2021/10/22 10:20:08;;;;;;;4.28;2.50;;;;;;;10.71;64.72;100375.66;5030225;28;20555;-49
2021/10/22 10:22:35;;;;;;;3.88;2.40;;;;;;;10.71;64.89;100373.03;5028274;28;20108;-49
2021/10/22 10:25:05;;;;;;;4.13;2.67;;;;;;;10.72;64.74;100377.44;5041231;28;20040;-49
2021/10/22 10:27:42;;;;;;;7.47;2.88;;;;;;;10.72;64.72;100377.44;5028090;28;20390;-49
2021/10/22 10:30:11;;;;;;;5.10;2.55;;;;;;;10.71;64.87;100374.81;5029364;28;20370;-49
2021/10/22 10:32:40;;;;;;;4.30;2.25;;;;;;;10.71;64.94;100365.13;5038180;28;20048;-49
2021/10/22 10:35:20;;;;;;;3.83;1.85;;;;;;;10.71;64.82;100373.03;5052949;28;20477;-49
2021/10/22 10:37:53;;;;;;;5.32;2.10;;;;;;;10.70;64.81;100367.81;5036013;28;20070;-49
2021/10/22 10:40:33;;;;;;;6.57;2.53;;;;;;;10.70;64.97;100373.09;5042486;28;20028;-49
2021/10/22 10:43:02;;;;;;;2.47;1.90;;;;;;;10.70;64.84;100363.38;5043270;28;20484;-49
2021/10/22 10:45:27;;;;;;;5.85;1.98;;;;;;;10.70;64.90;100373.94;5033927;28;20045;-49
2021/10/22 10:48:03;;;;;;;4.20;1.77;;;;;;;10.70;64.78;100373.94;5031430;28;20030;-50
2021/10/22 10:51:04;;;;;;;3.03;1.92;;;;;;;10.71;64.89;100359.84;5019436;28;20030;-49
2021/10/22 10:53:38;;;;;;;3.70;1.88;;;;;;;10.69;64.89;100352.84;4992539;28;20042;-49
2021/10/22 10:56:22;;;;;;;4.78;1.85;;;;;;;10.68;64.77;100343.19;5028335;28;20395;-49
2021/10/22 10:58:50;;;;;;;4.43;1.92;;;;;;;10.67;65.02;100346.75;5015329;28;20022;-49
2021/10/22 11:01:28;;;;;;;7.53;2.35;;;;;;;10.68;65.09;100349.34;5030616;28;20037;-48
2021/10/22 11:03:54;;;;;;;2.03;1.58;;;;;;;10.69;64.77;100344.94;5025550;28;20037;-49
2021/10/22 11:06:44;;;;;;;5.25;1.77;;;;;;;10.69;64.93;100356.38;5022083;28;20506;-49
2021/10/22 11:09:26;;;;;;;3.53;1.83;;;;;;;10.68;64.95;100361.66;5024802;28;20033;-49
2021/10/22 11:12:01;;;;;;;1.80;1.60;;;;;;;10.68;64.80;100364.31;5037013;28;20032;-49
2021/10/22 11:14:28;;;;;;;4.45;2.03;;;;;;;10.69;64.93;100350.22;5032699;28;20546;-49
2021/10/22 11:16:55;;;;;;;4.50;1.83;;;;;;;10.68;64.67;100353.75;5030222;28;20401;-50
2021/10/22 11:19:26;;;;;;;3.92;1.88;;;;;;;10.68;64.65;100354.63;5033251;28;20025;-49
2021/10/22 11:21:52;;;;;;;;;;;;;;;10.70;65.01;100367.81;5037549;28;20544;-49
2021/10/22 11:24:29;;;;;;;4.40;2.33;;;;;;;10.67;65.13;100352.03;5042273;28;20001;-49
2021/10/22 11:27:17;;;;;;;3.08;1.75;;;;;;;10.69;65.06;100363.41;5033905;28;20926;-49
2021/10/22 11:29:46;;;;;;;4.90;2.28;;;;;;;10.68;64.60;100337.94;5028317;28;20036;-49
2021/10/22 11:32:16;;;;;;;3.70;2.10;;;;;;;10.67;64.96;100342.31;5032340;28;20029;-49
2021/10/22 11:34:46;;;;;;;3.58;2.00;;;;;;;10.68;64.81;100354.63;5031968;28;20032;-49
2021/10/22 11:37:15;;;;;;;3.97;2.35;;;;;;;10.65;64.88;100345.00;5031607;28;20528;-49